sensor_id;sensor_type;location;lat;lon;timestamp;temperature;humidity
9107;DHT22;4589;48.690;8.952;2023-11-19T00:03:03;6.80;99.90
9107;DHT22;4589;48.690;8.952;2023-11-19T00:05:29;6.90;99.90
9107;DHT22;4589;48.690;8.952;2023-11-19T00:07:55;7.00;99.90
9107;DHT22;4589;48.690;8.952;2023-11-19T00:12:48;7.10;99.90
9107;DHT22;4589;48.690;8.952;2023-11-19T00:15:14;7.20;99.90
9107;DHT22;4589;48.690;8.952;2023-11-19T00:17:41;7.10;99.90
9107;DHT22;4589;48.690;8.952;2023-11-19T00:20:13;7.20;99.90
9107;DHT22;4589;48.690;8.952;2023-11-19T00:25:06;7.20;99.90
9107;DHT22;4589;48.690;8.952;2023-11-19T00:42:09;7.40;99.90
9107;DHT22;4589;48.690;8.952;2023-11-19T00:44:36;7.40;99.90
9107;DHT22;4589;48.690;8.952;2023-11-19T00:47:01;7.40;99.90
9107;DHT22;4589;48.690;8.952;2023-11-19T00:49:27;7.50;99.90
9107;DHT22;4589;48.690;8.952;2023-11-19T00:51:53;7.60;99.90
9107;DHT22;4589;48.690;8.952;2023-11-19T01:01:37;7.60;99.90
9107;DHT22;4589;48.690;8.952;2023-11-19T01:04:02;7.70;99.90
9107;DHT22;4589;48.690;8.952;2023-11-19T01:06:29;7.70;99.90
9107;DHT22;4589;48.690;8.952;2023-11-19T01:08:55;7.70;99.90
9107;DHT22;4589;48.690;8.952;2023-11-19T01:11:22;7.80;99.90
9107;DHT22;4589;48.690;8.952;2023-11-19T01:13:49;7.80;99.90
9107;DHT22;4589;48.690;8.952;2023-11-19T01:18:40;7.90;99.90
9107;DHT22;4589;48.690;8.952;2023-11-19T01:21:06;7.90;99.90
9107;DHT22;4589;48.690;8.952;2023-11-19T01:26:00;8.00;99.90
9107;DHT22;4589;48.690;8.952;2023-11-19T01:38:10;8.00;99.90
9107;DHT22;4589;48.690;8.952;2023-11-19T01:40:36;8.00;99.90
9107;DHT22;4589;48.690;8.952;2023-11-19T01:43:03;8.10;99.90
9107;DHT22;4589;48.690;8.952;2023-11-19T01:45:30;8.10;99.90
9107;DHT22;4589;48.690;8.952;2023-11-19T01:47:57;8.10;99.90
9107;DHT22;4589;48.690;8.952;2023-11-19T01:50:23;8.10;99.90
9107;DHT22;4589;48.690;8.952;2023-11-19T01:52:53;8.20;99.90
9107;DHT22;4589;48.690;8.952;2023-11-19T01:55:20;8.20;99.90
9107;DHT22;4589;48.690;8.952;2023-11-19T01:57:47;8.20;99.90
9107;DHT22;4589;48.690;8.952;2023-11-19T02:02:43;8.30;99.90
9107;DHT22;4589;48.690;8.952;2023-11-19T02:05:11;8.30;99.90
9107;DHT22;4589;48.690;8.952;2023-11-19T02:07:37;8.30;99.90
9107;DHT22;4589;48.690;8.952;2023-11-19T02:10:02;8.40;99.90
9107;DHT22;4589;48.690;8.952;2023-11-19T02:12:31;8.40;99.90
9107;DHT22;4589;48.690;8.952;2023-11-19T02:14:59;8.40;99.90
9107;DHT22;4589;48.690;8.952;2023-11-19T02:17:29;8.50;99.90
9107;DHT22;4589;48.690;8.952;2023-11-19T02:19:57;8.50;99.90
9107;DHT22;4589;48.690;8.952;2023-11-19T02:22:23;8.60;99.90
9107;DHT22;4589;48.690;8.952;2023-11-19T02:24:54;8.50;99.90
9107;DHT22;4589;48.690;8.952;2023-11-19T02:27:43;8.70;99.90
9107;DHT22;4589;48.690;8.952;2023-11-19T02:30:11;8.80;99.90
9107;DHT22;4589;48.690;8.952;2023-11-19T02:35:06;8.80;99.90
9107;DHT22;4589;48.690;8.952;2023-11-19T02:52:21;9.00;99.90
9107;DHT22;4589;48.690;8.952;2023-11-19T02:57:13;9.00;99.90
9107;DHT22;4589;48.690;8.952;2023-11-19T02:59:39;9.00;99.90
9107;DHT22;4589;48.690;8.952;2023-11-19T03:02:07;9.10;99.90
9107;DHT22;4589;48.690;8.952;2023-11-19T03:16:48;9.20;99.90
9107;DHT22;4589;48.690;8.952;2023-11-19T03:19:14;9.30;99.90
9107;DHT22;4589;48.690;8.952;2023-11-19T03:21:40;9.30;99.90
9107;DHT22;4589;48.690;8.952;2023-11-19T03:41:19;9.40;99.90
9107;DHT22;4589;48.690;8.952;2023-11-19T03:43:44;9.50;99.90
9107;DHT22;4589;48.690;8.952;2023-11-19T03:46:20;9.50;99.90
9107;DHT22;4589;48.690;8.952;2023-11-19T03:48:49;9.50;99.90
9107;DHT22;4589;48.690;8.952;2023-11-19T03:51:15;9.50;99.90
9107;DHT22;4589;48.690;8.952;2023-11-19T03:53:45;9.40;99.90
9107;DHT22;4589;48.690;8.952;2023-11-19T03:56:11;9.50;99.90
9107;DHT22;4589;48.690;8.952;2023-11-19T04:01:04;9.50;99.90
9107;DHT22;4589;48.690;8.952;2023-11-19T04:03:29;9.50;99.90
9107;DHT22;4589;48.690;8.952;2023-11-19T04:08:22;9.50;99.90
9107;DHT22;4589;48.690;8.952;2023-11-19T04:13:13;9.50;99.90
9107;DHT22;4589;48.690;8.952;2023-11-19T04:15:39;9.50;99.90
9107;DHT22;4589;48.690;8.952;2023-11-19T04:18:04;9.50;99.90
9107;DHT22;4589;48.690;8.952;2023-11-19T04:20:30;9.50;99.90
9107;DHT22;4589;48.690;8.952;2023-11-19T04:22:57;9.50;99.90
9107;DHT22;4589;48.690;8.952;2023-11-19T04:25:22;9.50;99.90
9107;DHT22;4589;48.690;8.952;2023-11-19T04:27:49;9.50;99.90
9107;DHT22;4589;48.690;8.952;2023-11-19T04:30:15;9.50;99.90
9107;DHT22;4589;48.690;8.952;2023-11-19T04:35:07;9.50;99.90
9107;DHT22;4589;48.690;8.952;2023-11-19T04:40:00;9.50;99.90
9107;DHT22;4589;48.690;8.952;2023-11-19T04:42:25;9.50;99.90
9107;DHT22;4589;48.690;8.952;2023-11-19T04:49:43;9.60;99.90
9107;DHT22;4589;48.690;8.952;2023-11-19T04:52:09;9.60;99.90
9107;DHT22;4589;48.690;8.952;2023-11-19T04:54:35;9.60;99.90
9107;DHT22;4589;48.690;8.952;2023-11-19T04:57:00;9.60;99.90
9107;DHT22;4589;48.690;8.952;2023-11-19T05:01:53;9.60;99.90
9107;DHT22;4589;48.690;8.952;2023-11-19T05:04:18;9.70;99.90
9107;DHT22;4589;48.690;8.952;2023-11-19T05:14:04;9.70;99.90
9107;DHT22;4589;48.690;8.952;2023-11-19T05:23:49;9.90;99.90
9107;DHT22;4589;48.690;8.952;2023-11-19T05:26:19;9.90;99.90
9107;DHT22;4589;48.690;8.952;2023-11-19T05:36:03;9.90;99.90
9107;DHT22;4589;48.690;8.952;2023-11-19T05:38:29;10.00;99.90
9107;DHT22;4589;48.690;8.952;2023-11-19T05:45:47;10.00;99.90
9107;DHT22;4589;48.690;8.952;2023-11-19T05:48:13;10.00;99.90
9107;DHT22;4589;48.690;8.952;2023-11-19T05:50:39;9.90;99.90
9107;DHT22;4589;48.690;8.952;2023-11-19T05:53:04;10.00;99.90
9107;DHT22;4589;48.690;8.952;2023-11-19T05:55:36;9.90;99.90
9107;DHT22;4589;48.690;8.952;2023-11-19T05:58:03;9.80;99.90
9107;DHT22;4589;48.690;8.952;2023-11-19T06:05:22;9.80;99.90
9107;DHT22;4589;48.690;8.952;2023-11-19T06:07:47;9.80;99.90
9107;DHT22;4589;48.690;8.952;2023-11-19T06:12:41;9.90;99.90
9107;DHT22;4589;48.690;8.952;2023-11-19T06:15:08;9.80;99.90
9107;DHT22;4589;48.690;8.952;2023-11-19T06:17:34;9.80;99.90
9107;DHT22;4589;48.690;8.952;2023-11-19T06:19:59;9.80;99.90
9107;DHT22;4589;48.690;8.952;2023-11-19T06:37:01;9.80;99.90
9107;DHT22;4589;48.690;8.952;2023-11-19T06:39:29;9.80;99.90
9107;DHT22;4589;48.690;8.952;2023-11-19T06:41:55;9.90;99.90
9107;DHT22;4589;48.690;8.952;2023-11-19T06:46:48;9.80;99.90
9107;DHT22;4589;48.690;8.952;2023-11-19T06:49:14;9.90;99.90
9107;DHT22;4589;48.690;8.952;2023-11-19T06:51:42;9.80;99.90
9107;DHT22;4589;48.690;8.952;2023-11-19T06:54:09;9.90;99.90
9107;DHT22;4589;48.690;8.952;2023-11-19T06:56:34;9.80;99.90
9107;DHT22;4589;48.690;8.952;2023-11-19T07:01:26;9.80;99.90
9107;DHT22;4589;48.690;8.952;2023-11-19T07:03:52;9.70;99.90
9107;DHT22;4589;48.690;8.952;2023-11-19T07:06:18;9.70;99.90
9107;DHT22;4589;48.690;8.952;2023-11-19T07:11:13;9.70;99.90
9107;DHT22;4589;48.690;8.952;2023-11-19T07:13:40;9.70;99.90
9107;DHT22;4589;48.690;8.952;2023-11-19T07:16:07;9.80;99.90
9107;DHT22;4589;48.690;8.952;2023-11-19T07:21:01;9.90;99.90
9107;DHT22;4589;48.690;8.952;2023-11-19T07:38:07;10.00;99.90
9107;DHT22;4589;48.690;8.952;2023-11-19T07:40:33;10.00;99.90
9107;DHT22;4589;48.690;8.952;2023-11-19T07:42:59;10.10;99.90
9107;DHT22;4589;48.690;8.952;2023-11-19T07:47:52;10.10;99.90
9107;DHT22;4589;48.690;8.952;2023-11-19T07:50:18;10.10;99.90
9107;DHT22;4589;48.690;8.952;2023-11-19T07:55:11;10.10;99.90
9107;DHT22;4589;48.690;8.952;2023-11-19T07:57:37;10.10;99.90
9107;DHT22;4589;48.690;8.952;2023-11-19T08:00:03;10.10;99.90
9107;DHT22;4589;48.690;8.952;2023-11-19T08:02:29;10.10;99.90
9107;DHT22;4589;48.690;8.952;2023-11-19T08:04:54;10.10;99.90
9107;DHT22;4589;48.690;8.952;2023-11-19T08:07:21;10.10;99.90
9107;DHT22;4589;48.690;8.952;2023-11-19T08:09:47;10.20;99.90
9107;DHT22;4589;48.690;8.952;2023-11-19T08:12:13;10.20;99.90
9107;DHT22;4589;48.690;8.952;2023-11-19T08:14:41;10.20;99.90
9107;DHT22;4589;48.690;8.952;2023-11-19T08:17:06;10.20;99.90
9107;DHT22;4589;48.690;8.952;2023-11-19T08:21:58;10.30;99.90
9107;DHT22;4589;48.690;8.952;2023-11-19T08:24:24;10.30;99.90
9107;DHT22;4589;48.690;8.952;2023-11-19T08:26:49;10.30;99.90
9107;DHT22;4589;48.690;8.952;2023-11-19T08:31:41;10.50;99.90
9107;DHT22;4589;48.690;8.952;2023-11-19T08:36:34;10.80;99.90
9107;DHT22;4589;48.690;8.952;2023-11-19T08:41:26;10.90;99.90
9107;DHT22;4589;48.690;8.952;2023-11-19T08:43:53;11.00;99.90
9107;DHT22;4589;48.690;8.952;2023-11-19T08:46:18;11.00;99.90
9107;DHT22;4589;48.690;8.952;2023-11-19T08:48:45;11.30;99.90
9107;DHT22;4589;48.690;8.952;2023-11-19T08:51:11;11.70;99.90
9107;DHT22;4589;48.690;8.952;2023-11-19T08:53:37;12.10;99.90
9107;DHT22;4589;48.690;8.952;2023-11-19T08:56:03;12.50;99.90
9107;DHT22;4589;48.690;8.952;2023-11-19T08:58:29;12.90;99.90
9107;DHT22;4589;48.690;8.952;2023-11-19T09:03:21;12.70;99.90
9107;DHT22;4589;48.690;8.952;2023-11-19T09:10:38;12.50;99.90
9107;DHT22;4589;48.690;8.952;2023-11-19T09:13:04;12.70;99.90
9107;DHT22;4589;48.690;8.952;2023-11-19T09:15:29;13.10;99.90
9107;DHT22;4589;48.690;8.952;2023-11-19T09:17:55;13.30;99.90
9107;DHT22;4589;48.690;8.952;2023-11-19T09:20:21;13.10;99.90
9107;DHT22;4589;48.690;8.952;2023-11-19T09:22:47;13.00;99.90
9107;DHT22;4589;48.690;8.952;2023-11-19T09:25:12;13.50;99.90
9107;DHT22;4589;48.690;8.952;2023-11-19T09:27:42;14.50;99.90
9107;DHT22;4589;48.690;8.952;2023-11-19T09:30:08;15.40;99.90
9107;DHT22;4589;48.690;8.952;2023-11-19T09:32:34;16.40;99.90
9107;DHT22;4589;48.690;8.952;2023-11-19T09:37:26;16.70;99.90
9107;DHT22;4589;48.690;8.952;2023-11-19T09:39:51;16.10;99.90
9107;DHT22;4589;48.690;8.952;2023-11-19T09:42:19;15.20;99.90
9107;DHT22;4589;48.690;8.952;2023-11-19T09:44:45;14.90;99.90
9107;DHT22;4589;48.690;8.952;2023-11-19T09:47:14;15.10;99.90
9107;DHT22;4589;48.690;8.952;2023-11-19T09:49:39;15.40;99.90
9107;DHT22;4589;48.690;8.952;2023-11-19T09:52:05;16.10;99.90
9107;DHT22;4589;48.690;8.952;2023-11-19T09:56:58;17.10;99.90
9107;DHT22;4589;48.690;8.952;2023-11-19T09:59:29;17.30;99.90
9107;DHT22;4589;48.690;8.952;2023-11-19T10:01:55;17.00;99.90
9107;DHT22;4589;48.690;8.952;2023-11-19T10:04:22;16.50;99.90
9107;DHT22;4589;48.690;8.952;2023-11-19T10:11:40;18.40;99.90
9107;DHT22;4589;48.690;8.952;2023-11-19T10:14:06;18.70;99.90
9107;DHT22;4589;48.690;8.952;2023-11-19T10:16:34;18.50;99.90
9107;DHT22;4589;48.690;8.952;2023-11-19T10:23:55;16.70;99.90
9107;DHT22;4589;48.690;8.952;2023-11-19T10:26:22;16.50;99.90
9107;DHT22;4589;48.690;8.952;2023-11-19T10:31:19;17.50;99.90
9107;DHT22;4589;48.690;8.952;2023-11-19T10:33:45;17.30;99.90
9107;DHT22;4589;48.690;8.952;2023-11-19T10:36:12;17.90;99.90
9107;DHT22;4589;48.690;8.952;2023-11-19T10:38:38;18.70;99.90
9107;DHT22;4589;48.690;8.952;2023-11-19T10:41:04;18.90;99.90
9107;DHT22;4589;48.690;8.952;2023-11-19T10:43:31;18.30;99.90
9107;DHT22;4589;48.690;8.952;2023-11-19T10:46:13;17.40;99.90
9107;DHT22;4589;48.690;8.952;2023-11-19T10:48:39;16.90;99.90
9107;DHT22;4589;48.690;8.952;2023-11-19T10:51:06;17.70;99.90
9107;DHT22;4589;48.690;8.952;2023-11-19T10:53:36;18.20;99.90
9107;DHT22;4589;48.690;8.952;2023-11-19T10:56:04;17.60;99.90
9107;DHT22;4589;48.690;8.952;2023-11-19T10:58:33;17.10;99.90
9107;DHT22;4589;48.690;8.952;2023-11-19T11:01:02;16.50;99.90
9107;DHT22;4589;48.690;8.952;2023-11-19T11:03:35;16.60;99.90
9107;DHT22;4589;48.690;8.952;2023-11-19T11:06:05;16.00;99.90
9107;DHT22;4589;48.690;8.952;2023-11-19T11:08:31;15.90;99.90
9107;DHT22;4589;48.690;8.952;2023-11-19T11:10:57;16.70;99.90
9107;DHT22;4589;48.690;8.952;2023-11-19T11:15:55;18.20;99.90
9107;DHT22;4589;48.690;8.952;2023-11-19T11:18:21;18.50;99.90
9107;DHT22;4589;48.690;8.952;2023-11-19T11:20:49;18.50;99.90
9107;DHT22;4589;48.690;8.952;2023-11-19T11:37:13;15.40;99.90
9107;DHT22;4589;48.690;8.952;2023-11-19T11:39:36;15.20;99.90
9107;DHT22;4589;48.690;8.952;2023-11-19T11:42:33;15.60;99.90
9107;DHT22;4589;48.690;8.952;2023-11-19T11:45:06;17.10;99.90
9107;DHT22;4589;48.690;8.952;2023-11-19T11:50:13;18.50;99.90
9107;DHT22;4589;48.690;8.952;2023-11-19T11:55:27;19.30;99.90
9107;DHT22;4589;48.690;8.952;2023-11-19T11:57:54;20.10;99.90
9107;DHT22;4589;48.690;8.952;2023-11-19T12:00:30;20.20;99.90
9107;DHT22;4589;48.690;8.952;2023-11-19T12:02:57;19.70;99.90
9107;DHT22;4589;48.690;8.952;2023-11-19T12:05:24;20.00;99.90
9107;DHT22;4589;48.690;8.952;2023-11-19T12:08:05;20.40;99.90
9107;DHT22;4589;48.690;8.952;2023-11-19T12:10:37;20.50;99.90
9107;DHT22;4589;48.690;8.952;2023-11-19T12:13:05;20.20;99.90
9107;DHT22;4589;48.690;8.952;2023-11-19T12:18:30;18.30;99.90
9107;DHT22;4589;48.690;8.952;2023-11-19T12:20:59;17.90;99.90
9107;DHT22;4589;48.690;8.952;2023-11-19T12:23:29;18.20;99.90
9107;DHT22;4589;48.690;8.952;2023-11-19T12:25:55;17.50;99.90
9107;DHT22;4589;48.690;8.952;2023-11-19T12:30:49;17.40;99.90
9107;DHT22;4589;48.690;8.952;2023-11-19T12:33:15;17.60;99.90
9107;DHT22;4589;48.690;8.952;2023-11-19T12:35:43;17.50;99.90
9107;DHT22;4589;48.690;8.952;2023-11-19T12:38:19;19.00;99.90
9107;DHT22;4589;48.690;8.952;2023-11-19T12:40:46;19.00;99.90
9107;DHT22;4589;48.690;8.952;2023-11-19T12:43:21;20.00;99.90
9107;DHT22;4589;48.690;8.952;2023-11-19T12:45:47;19.30;99.90
9107;DHT22;4589;48.690;8.952;2023-11-19T12:48:13;18.80;99.90
9107;DHT22;4589;48.690;8.952;2023-11-19T12:53:22;17.60;99.90
9107;DHT22;4589;48.690;8.952;2023-11-19T12:55:48;17.20;99.90
9107;DHT22;4589;48.690;8.952;2023-11-19T12:58:34;17.30;99.90
9107;DHT22;4589;48.690;8.952;2023-11-19T13:03:34;17.30;99.90
9107;DHT22;4589;48.690;8.952;2023-11-19T13:06:07;17.20;99.90
9107;DHT22;4589;48.690;8.952;2023-11-19T13:08:41;16.70;99.90
9107;DHT22;4589;48.690;8.952;2023-11-19T13:11:07;16.50;99.90
9107;DHT22;4589;48.690;8.952;2023-11-19T13:13:56;16.50;99.90
9107;DHT22;4589;48.690;8.952;2023-11-19T13:16:23;16.00;99.90
9107;DHT22;4589;48.690;8.952;2023-11-19T13:18:48;15.90;99.90
9107;DHT22;4589;48.690;8.952;2023-11-19T13:23:40;15.50;99.90
9107;DHT22;4589;48.690;8.952;2023-11-19T13:28:31;15.10;99.90
9107;DHT22;4589;48.690;8.952;2023-11-19T13:30:57;15.30;99.90
9107;DHT22;4589;48.690;8.952;2023-11-19T13:33:23;15.20;99.90
9107;DHT22;4589;48.690;8.952;2023-11-19T13:35:48;15.10;99.90
9107;DHT22;4589;48.690;8.952;2023-11-19T13:38:14;14.90;99.90
9107;DHT22;4589;48.690;8.952;2023-11-19T13:40:40;14.70;99.90
9107;DHT22;4589;48.690;8.952;2023-11-19T13:43:05;14.60;99.90
9107;DHT22;4589;48.690;8.952;2023-11-19T13:45:31;14.50;99.90
9107;DHT22;4589;48.690;8.952;2023-11-19T13:52:49;14.10;99.90
9107;DHT22;4589;48.690;8.952;2023-11-19T13:55:15;14.00;99.90
9107;DHT22;4589;48.690;8.952;2023-11-19T13:57:42;14.00;99.90
9107;DHT22;4589;48.690;8.952;2023-11-19T14:00:09;13.90;99.90
9107;DHT22;4589;48.690;8.952;2023-11-19T14:02:39;13.80;99.90
9107;DHT22;4589;48.690;8.952;2023-11-19T14:05:06;13.60;99.90
9107;DHT22;4589;48.690;8.952;2023-11-19T14:07:31;13.50;99.90
9107;DHT22;4589;48.690;8.952;2023-11-19T14:09:57;13.50;99.90
9107;DHT22;4589;48.690;8.952;2023-11-19T14:12:23;13.40;99.90
9107;DHT22;4589;48.690;8.952;2023-11-19T14:19:41;13.30;99.90
9107;DHT22;4589;48.690;8.952;2023-11-19T14:22:07;13.10;99.90
9107;DHT22;4589;48.690;8.952;2023-11-19T14:24:34;13.10;99.90
9107;DHT22;4589;48.690;8.952;2023-11-19T14:27:00;13.10;99.90
9107;DHT22;4589;48.690;8.952;2023-11-19T14:29:26;13.00;99.90
9107;DHT22;4589;48.690;8.952;2023-11-19T14:34:20;12.90;99.90
9107;DHT22;4589;48.690;8.952;2023-11-19T14:39:12;12.80;99.90
9107;DHT22;4589;48.690;8.952;2023-11-19T14:41:38;12.80;99.90
9107;DHT22;4589;48.690;8.952;2023-11-19T14:44:04;12.60;99.90
9107;DHT22;4589;48.690;8.952;2023-11-19T14:46:30;12.80;99.90
9107;DHT22;4589;48.690;8.952;2023-11-19T14:51:22;12.40;99.90
9107;DHT22;4589;48.690;8.952;2023-11-19T14:53:48;12.30;99.90
9107;DHT22;4589;48.690;8.952;2023-11-19T14:56:13;12.30;99.90
9107;DHT22;4589;48.690;8.952;2023-11-19T14:58:39;12.20;99.90
9107;DHT22;4589;48.690;8.952;2023-11-19T15:01:05;12.20;99.90
9107;DHT22;4589;48.690;8.952;2023-11-19T15:03:31;12.20;99.90
9107;DHT22;4589;48.690;8.952;2023-11-19T15:08:23;12.00;99.90
9107;DHT22;4589;48.690;8.952;2023-11-19T15:13:15;11.90;99.90
9107;DHT22;4589;48.690;8.952;2023-11-19T15:18:07;11.80;99.90
9107;DHT22;4589;48.690;8.952;2023-11-19T15:20:34;11.70;99.90
9107;DHT22;4589;48.690;8.952;2023-11-19T15:23:01;11.60;99.90
9107;DHT22;4589;48.690;8.952;2023-11-19T15:25:27;11.50;99.90
9107;DHT22;4589;48.690;8.952;2023-11-19T15:27:52;11.50;99.90
9107;DHT22;4589;48.690;8.952;2023-11-19T15:37:36;11.10;99.90
9107;DHT22;4589;48.690;8.952;2023-11-19T15:40:06;11.10;99.90
9107;DHT22;4589;48.690;8.952;2023-11-19T15:42:36;11.00;99.90
9107;DHT22;4589;48.690;8.952;2023-11-19T15:45:01;10.90;99.90
9107;DHT22;4589;48.690;8.952;2023-11-19T15:47:30;10.80;99.90
9107;DHT22;4589;48.690;8.952;2023-11-19T15:49:56;10.70;99.90
9107;DHT22;4589;48.690;8.952;2023-11-19T15:52:22;10.60;99.90
9107;DHT22;4589;48.690;8.952;2023-11-19T15:57:13;10.50;99.90
9107;DHT22;4589;48.690;8.952;2023-11-19T16:04:31;10.40;99.90
9107;DHT22;4589;48.690;8.952;2023-11-19T16:06:56;10.30;99.90
9107;DHT22;4589;48.690;8.952;2023-11-19T16:09:22;10.20;99.90
9107;DHT22;4589;48.690;8.952;2023-11-19T16:11:48;10.30;99.90
9107;DHT22;4589;48.690;8.952;2023-11-19T16:16:40;10.10;99.90
9107;DHT22;4589;48.690;8.952;2023-11-19T16:19:06;10.20;99.90
9107;DHT22;4589;48.690;8.952;2023-11-19T16:21:33;10.10;99.90
9107;DHT22;4589;48.690;8.952;2023-11-19T16:24:02;10.10;99.90
9107;DHT22;4589;48.690;8.952;2023-11-19T16:26:29;10.10;99.90
9107;DHT22;4589;48.690;8.952;2023-11-19T16:31:22;9.90;99.90
9107;DHT22;4589;48.690;8.952;2023-11-19T16:33:48;9.80;99.90
9107;DHT22;4589;48.690;8.952;2023-11-19T16:53:16;9.80;99.90
9107;DHT22;4589;48.690;8.952;2023-11-19T17:00:35;9.80;99.90
9107;DHT22;4589;48.690;8.952;2023-11-19T17:03:03;9.80;99.90
9107;DHT22;4589;48.690;8.952;2023-11-19T17:05:33;9.80;99.90
9107;DHT22;4589;48.690;8.952;2023-11-19T17:07:59;9.80;99.90
9107;DHT22;4589;48.690;8.952;2023-11-19T17:12:51;9.80;99.90
9107;DHT22;4589;48.690;8.952;2023-11-19T17:15:17;9.80;99.90
9107;DHT22;4589;48.690;8.952;2023-11-19T17:20:10;9.80;99.90
9107;DHT22;4589;48.690;8.952;2023-11-19T17:22:37;9.80;99.90
9107;DHT22;4589;48.690;8.952;2023-11-19T17:25:04;9.70;99.90
9107;DHT22;4589;48.690;8.952;2023-11-19T17:30:04;9.50;99.90
9107;DHT22;4589;48.690;8.952;2023-11-19T17:32:30;9.60;99.90
9107;DHT22;4589;48.690;8.952;2023-11-19T17:37:24;9.60;99.90
9107;DHT22;4589;48.690;8.952;2023-11-19T17:44:44;9.40;99.90
9107;DHT22;4589;48.690;8.952;2023-11-19T17:52:05;9.50;99.90
9107;DHT22;4589;48.690;8.952;2023-11-19T17:54:31;9.50;99.90
9107;DHT22;4589;48.690;8.952;2023-11-19T17:56:56;9.50;99.90
9107;DHT22;4589;48.690;8.952;2023-11-19T18:01:52;9.40;99.90
9107;DHT22;4589;48.690;8.952;2023-11-19T18:04:25;9.40;99.90
9107;DHT22;4589;48.690;8.952;2023-11-19T18:06:52;9.30;99.90
9107;DHT22;4589;48.690;8.952;2023-11-19T18:09:18;9.40;99.90
9107;DHT22;4589;48.690;8.952;2023-11-19T18:11:44;9.40;99.90
9107;DHT22;4589;48.690;8.952;2023-11-19T18:14:11;9.40;99.90
9107;DHT22;4589;48.690;8.952;2023-11-19T18:16:37;9.30;99.90
9107;DHT22;4589;48.690;8.952;2023-11-19T18:19:02;9.40;99.90
9107;DHT22;4589;48.690;8.952;2023-11-19T18:21:30;9.40;99.90
9107;DHT22;4589;48.690;8.952;2023-11-19T18:23:58;9.40;99.90
9107;DHT22;4589;48.690;8.952;2023-11-19T18:36:08;9.40;99.90
9107;DHT22;4589;48.690;8.952;2023-11-19T18:41:03;9.30;99.90
9107;DHT22;4589;48.690;8.952;2023-11-19T18:48:21;9.40;99.90
9107;DHT22;4589;48.690;8.952;2023-11-19T18:50:47;9.40;99.90
9107;DHT22;4589;48.690;8.952;2023-11-19T18:53:13;9.40;99.90
9107;DHT22;4589;48.690;8.952;2023-11-19T18:55:38;9.40;99.90
9107;DHT22;4589;48.690;8.952;2023-11-19T18:58:05;9.40;99.90
9107;DHT22;4589;48.690;8.952;2023-11-19T19:10:20;9.20;99.90
9107;DHT22;4589;48.690;8.952;2023-11-19T19:17:38;9.10;99.90
9107;DHT22;4589;48.690;8.952;2023-11-19T19:20:05;9.00;99.90
9107;DHT22;4589;48.690;8.952;2023-11-19T19:22:33;8.90;99.90
9107;DHT22;4589;48.690;8.952;2023-11-19T19:24:59;8.90;99.90
9107;DHT22;4589;48.690;8.952;2023-11-19T19:27:25;9.00;99.90
9107;DHT22;4589;48.690;8.952;2023-11-19T19:29:50;9.00;99.90
9107;DHT22;4589;48.690;8.952;2023-11-19T19:39:35;9.20;99.90
9107;DHT22;4589;48.690;8.952;2023-11-19T19:44:29;9.20;99.90
9107;DHT22;4589;48.690;8.952;2023-11-19T19:49:21;9.30;99.90
9107;DHT22;4589;48.690;8.952;2023-11-19T19:56:39;9.50;99.90
9107;DHT22;4589;48.690;8.952;2023-11-19T19:59:04;9.60;99.90
9107;DHT22;4589;48.690;8.952;2023-11-19T20:01:30;9.50;99.90
9107;DHT22;4589;48.690;8.952;2023-11-19T20:06:22;9.60;99.90
9107;DHT22;4589;48.690;8.952;2023-11-19T20:08:49;9.60;99.90
9107;DHT22;4589;48.690;8.952;2023-11-19T20:13:41;9.50;99.90
9107;DHT22;4589;48.690;8.952;2023-11-19T20:16:09;9.50;99.90
9107;DHT22;4589;48.690;8.952;2023-11-19T20:23:32;9.50;99.90
9107;DHT22;4589;48.690;8.952;2023-11-19T20:25:58;9.40;99.90
9107;DHT22;4589;48.690;8.952;2023-11-19T20:28:23;9.40;99.90
9107;DHT22;4589;48.690;8.952;2023-11-19T20:30:49;9.30;99.90
9107;DHT22;4589;48.690;8.952;2023-11-19T20:33:14;9.30;99.90
9107;DHT22;4589;48.690;8.952;2023-11-19T20:35:41;9.40;99.90
9107;DHT22;4589;48.690;8.952;2023-11-19T20:38:06;9.50;99.90
9107;DHT22;4589;48.690;8.952;2023-11-19T20:52:47;9.40;99.90
9107;DHT22;4589;48.690;8.952;2023-11-19T20:55:13;9.40;99.90
9107;DHT22;4589;48.690;8.952;2023-11-19T21:00:06;9.40;99.90
9107;DHT22;4589;48.690;8.952;2023-11-19T21:02:32;9.40;99.90
9107;DHT22;4589;48.690;8.952;2023-11-19T21:04:57;9.30;99.90
9107;DHT22;4589;48.690;8.952;2023-11-19T21:07:23;9.30;99.90
9107;DHT22;4589;48.690;8.952;2023-11-19T21:09:49;9.40;99.90
9107;DHT22;4589;48.690;8.952;2023-11-19T21:24:25;9.20;99.90
9107;DHT22;4589;48.690;8.952;2023-11-19T21:26:51;9.20;99.90
9107;DHT22;4589;48.690;8.952;2023-11-19T21:29:16;9.20;99.90
9107;DHT22;4589;48.690;8.952;2023-11-19T21:39:00;9.10;99.90
9107;DHT22;4589;48.690;8.952;2023-11-19T21:41:25;9.10;99.90
9107;DHT22;4589;48.690;8.952;2023-11-19T21:43:51;9.10;99.90
9107;DHT22;4589;48.690;8.952;2023-11-19T21:48:46;8.90;99.90
9107;DHT22;4589;48.690;8.952;2023-11-19T21:51:12;8.80;99.90
9107;DHT22;4589;48.690;8.952;2023-11-19T21:53:37;8.70;99.90
9107;DHT22;4589;48.690;8.952;2023-11-19T21:56:05;8.60;99.90
9107;DHT22;4589;48.690;8.952;2023-11-19T22:00:57;8.50;99.90
9107;DHT22;4589;48.690;8.952;2023-11-19T22:03:23;8.40;99.90
9107;DHT22;4589;48.690;8.952;2023-11-19T22:05:49;8.30;99.90
9107;DHT22;4589;48.690;8.952;2023-11-19T22:15:33;8.20;99.90
9107;DHT22;4589;48.690;8.952;2023-11-19T22:17:59;8.20;99.90
9107;DHT22;4589;48.690;8.952;2023-11-19T22:22:51;8.10;99.90
9107;DHT22;4589;48.690;8.952;2023-11-19T22:25:17;8.10;99.90
9107;DHT22;4589;48.690;8.952;2023-11-19T22:37:26;8.00;99.90
9107;DHT22;4589;48.690;8.952;2023-11-19T22:52:03;7.90;99.90
9107;DHT22;4589;48.690;8.952;2023-11-19T22:59:21;7.90;99.90
9107;DHT22;4589;48.690;8.952;2023-11-19T23:01:47;7.80;99.90
9107;DHT22;4589;48.690;8.952;2023-11-19T23:11:33;7.90;99.90
9107;DHT22;4589;48.690;8.952;2023-11-19T23:13:59;7.80;99.90
9107;DHT22;4589;48.690;8.952;2023-11-19T23:18:55;7.80;99.90
9107;DHT22;4589;48.690;8.952;2023-11-19T23:21:20;7.70;99.90
9107;DHT22;4589;48.690;8.952;2023-11-19T23:23:46;7.70;99.90
9107;DHT22;4589;48.690;8.952;2023-11-19T23:28:40;7.80;99.90
9107;DHT22;4589;48.690;8.952;2023-11-19T23:31:06;7.80;99.90
9107;DHT22;4589;48.690;8.952;2023-11-19T23:43:15;7.60;99.90
9107;DHT22;4589;48.690;8.952;2023-11-19T23:45:42;7.60;99.90
9107;DHT22;4589;48.690;8.952;2023-11-19T23:53:01;7.80;99.90
9107;DHT22;4589;48.690;8.952;2023-11-19T23:57:54;7.80;99.90
